Time;durP1;ratioP1;P1;durP2;ratioP2;P2;SDS_P1;SDS_P2;PMS_P1;PMS_P2;Temp;Humidity;BMP_temperature;BMP_pressure;BME280_temperature;BME280_humidity;BME280_pressure;Samples;Min_cycle;Max_cycle;Signal;HPM_P1;HPM_P2
2021/08/24 00:01:09;;;;;;;6.03;1.50;;;;;;;;;;5034859;28;20029;-51
2021/08/24 00:03:35;;;;;;;4.68;1.70;;;;;;;;;;5036030;28;20034;-50
2021/08/24 00:06:01;;;;;;;3.95;1.95;;;;;;;;;;5034798;28;20050;-50
2021/08/24 00:08:27;;;;;;;3.35;1.65;;;;;;;;;;5033807;28;20025;-49
2021/08/24 00:10:55;;;;;;;4.00;1.58;;;;;;;;;;5035899;28;20048;-50
2021/08/24 00:13:22;;;;;;;5.70;2.20;;;;;;;;;;5034829;28;20028;-49
2021/08/24 00:15:49;;;;;;;4.03;1.60;;;;;;;;;;5041135;28;20497;-51
2021/08/24 00:18:15;;;;;;;4.18;1.85;;;;;;;;;;5034735;28;20080;-47
2021/08/24 00:20:42;;;;;;;4.35;1.75;;;;;;;;;;5033822;28;20032;-48
2021/08/24 00:23:09;;;;;;;5.28;1.58;;;;;;;;;;5034259;28;20060;-49
2021/08/24 00:25:36;;;;;;;3.60;1.20;;;;;;;;;;5033849;28;20111;-52
2021/08/24 00:28:02;;;;;;;5.10;1.75;;;;;;;;;;5034354;28;20045;-49
2021/08/24 00:30:28;;;;;;;4.28;1.92;;;;;;;;;;5034234;28;20124;-49
2021/08/24 00:32:54;;;;;;;5.88;1.88;;;;;;;;;;5033980;28;20033;-51
2021/08/24 00:35:20;;;;;;;4.55;1.65;;;;;;;;;;5033563;28;20059;-51
2021/08/24 00:37:46;;;;;;;3.70;1.45;;;;;;;;;;5033626;28;20056;-47
2021/08/24 00:40:13;;;;;;;7.45;1.60;;;;;;;;;;5033926;28;20034;-52
2021/08/24 00:42:40;;;;;;;4.07;1.65;;;;;;;;;;5033538;28;20056;-52
2021/08/24 00:45:08;;;;;;;3.45;1.60;;;;;;;;;;5035487;28;20040;-48
2021/08/24 00:47:34;;;;;;;5.28;1.75;;;;;;;;;;5037176;28;20025;-51
2021/08/24 00:50:06;;;;;;;4.72;1.73;;;;;;;;;;5035324;28;20037;-47
2021/08/24 00:52:32;;;;;;;6.60;1.92;;;;;;;;;;5033728;28;20393;-48
2021/08/24 00:54:58;;;;;;;2.30;1.13;;;;;;;;;;5033684;28;20026;-50
2021/08/24 00:57:25;;;;;;;3.65;1.63;;;;;;;;;;5034231;28;20473;-52
2021/08/24 00:59:52;;;;;;;4.75;1.70;;;;;;;;;;5042427;28;20031;-47
2021/08/24 01:02:19;;;;;;;5.88;1.77;;;;;;;;;;5032904;28;20184;-46
2021/08/24 01:04:47;;;;;;;5.23;1.80;;;;;;;;;;5032559;28;20026;-47
2021/08/24 01:07:17;;;;;;;3.20;1.40;;;;;;;;;;5036082;28;20275;-48
2021/08/24 01:09:55;;;;;;;2.42;1.10;;;;;;;;;;5033427;28;20119;-50
2021/08/24 01:12:40;;;;;;;3.83;1.60;;;;;;;;;;5033122;28;20385;-48
2021/08/24 01:15:08;;;;;;;5.57;1.73;;;;;;;;;;5016467;28;20108;-49
2021/08/24 01:17:39;;;;;;;3.60;1.55;;;;;;;;;;5026764;28;20033;-49
2021/08/24 01:20:18;;;;;;;3.60;1.70;;;;;;;;;;5031569;28;20025;-52
2021/08/24 01:23:03;;;;;;;3.70;1.33;;;;;;;;;;5032954;28;20025;-51
2021/08/24 01:25:34;;;;;;;7.00;2.47;;;;;;;;;;5032401;28;20571;-51
2021/08/24 01:28:06;;;;;;;3.47;1.52;;;;;;;;;;5032547;28;20025;-52
2021/08/24 01:30:42;;;;;;;4.22;2.10;;;;;;;;;;5040455;28;20500;-51
2021/08/24 01:33:16;;;;;;;4.22;1.45;;;;;;;;;;5017573;28;20029;-51
2021/08/24 01:35:55;;;;;;;4.93;1.77;;;;;;;;;;5029904;28;20859;-53
2021/08/24 01:38:44;;;;;;;4.57;1.50;;;;;;;;;;5029409;28;20100;-51
2021/08/24 01:41:12;;;;;;;4.78;1.80;;;;;;;;;;5032026;28;20727;-47
2021/08/24 01:43:59;;;;;;;3.75;1.80;;;;;;;;;;5031414;28;20034;-51
2021/08/24 01:46:44;;;;;;;5.47;1.65;;;;;;;;;;5028611;28;20037;-50
2021/08/24 01:49:10;;;;;;;5.43;1.73;;;;;;;;;;5034608;28;20025;-47
2021/08/24 01:51:39;;;;;;;5.40;1.73;;;;;;;;;;5032554;28;20045;-48
2021/08/24 01:54:11;;;;;;;3.53;1.55;;;;;;;;;;5017284;28;20021;-50
2021/08/24 01:56:38;;;;;;;4.22;1.90;;;;;;;;;;5031987;28;20021;-52
2021/08/24 01:59:10;;;;;;;5.00;1.90;;;;;;;;;;5031750;28;20017;-53
2021/08/24 02:01:40;;;;;;;4.03;2.00;;;;;;;;;;5032385;28;20040;-50
2021/08/24 02:04:09;;;;;;;3.03;1.65;;;;;;;;;;5034180;28;20500;-50
2021/08/24 02:06:37;;;;;;;3.08;1.70;;;;;;;;;;5034074;28;20029;-52
2021/08/24 02:09:07;;;;;;;4.10;1.57;;;;;;;;;;5033247;28;20021;-47
2021/08/24 02:11:34;;;;;;;3.63;1.77;;;;;;;;;;5031886;28;20302;-49
2021/08/24 02:14:03;;;;;;;4.50;2.17;;;;;;;;;;5032303;28;20030;-49
2021/08/24 02:16:30;;;;;;;6.80;2.17;;;;;;;;;;5032469;28;20489;-50
2021/08/24 02:19:06;;;;;;;6.03;1.90;;;;;;;;;;5032190;28;20032;-50
2021/08/24 02:21:34;;;;;;;4.00;1.73;;;;;;;;;;5032530;28;20321;-51
2021/08/24 02:24:02;;;;;;;5.00;1.90;;;;;;;;;;5033111;28;20476;-47
2021/08/24 02:26:28;;;;;;;;;;;;;;;;;;5032211;28;20536;-50
2021/08/24 02:28:56;;;;;;;3.58;1.70;;;;;;;;;;5033961;28;19947;-50
2021/08/24 02:31:29;;;;;;;4.95;1.80;;;;;;;;;;5033809;28;20485;-49
2021/08/24 02:33:58;;;;;;;7.53;2.17;;;;;;;;;;5033709;28;20026;-49
2021/08/24 02:36:24;;;;;;;6.32;2.10;;;;;;;;;;5031901;28;20378;-52
2021/08/24 02:39:02;;;;;;;7.25;1.83;;;;;;;;;;5031723;28;20028;-51
2021/08/24 02:41:39;;;;;;;4.72;1.83;;;;;;;;;;5030867;28;20049;-49
2021/08/24 02:44:17;;;;;;;4.70;2.20;;;;;;;;;;5032131;28;20041;-52
2021/08/24 02:46:43;;;;;;;;;;;;;;;;;;5033819;28;20033;-50
2021/08/24 02:49:12;;;;;;;5.20;1.88;;;;;;;;;;5032246;28;19991;-49
2021/08/24 02:51:38;;;;;;;5.18;1.98;;;;;;;;;;5032209;28;20034;-49
2021/08/24 02:54:07;;;;;;;4.75;1.98;;;;;;;;;;5016703;28;20021;-52
2021/08/24 02:56:33;;;;;;;4.78;1.65;;;;;;;;;;5026799;28;20389;-48
2021/08/24 02:58:59;;;;;;;4.97;1.80;;;;;;;;;;5032103;28;20033;-46
2021/08/24 03:01:25;;;;;;;7.68;2.08;;;;;;;;;;5032208;28;20095;-50
2021/08/24 03:03:51;;;;;;;9.50;2.30;;;;;;;;;;5032013;28;20025;-49
2021/08/24 03:06:17;;;;;;;3.92;1.90;;;;;;;;;;5031323;28;20071;-47
2021/08/24 03:08:45;;;;;;;3.63;2.00;;;;;;;;;;5031216;28;20029;-48
2021/08/24 03:11:12;;;;;;;3.38;2.00;;;;;;;;;;5032139;28;20030;-51
2021/08/24 03:13:42;;;;;;;5.30;1.98;;;;;;;;;;5032152;28;20065;-48
2021/08/24 03:16:12;;;;;;;5.18;2.33;;;;;;;;;;5031921;28;20029;-49
2021/08/24 03:18:40;;;;;;;3.50;1.70;;;;;;;;;;5031975;28;20108;-51
2021/08/24 03:21:07;;;;;;;4.70;2.00;;;;;;;;;;5015735;28;20032;-49
2021/08/24 03:23:36;;;;;;;5.40;2.03;;;;;;;;;;5031464;28;20034;-48
2021/08/24 03:26:02;;;;;;;4.85;1.80;;;;;;;;;;5033394;28;20100;-47
2021/08/24 03:28:28;;;;;;;5.13;1.90;;;;;;;;;;5033903;28;20557;-49
2021/08/24 03:30:55;;;;;;;4.45;2.03;;;;;;;;;;5041516;28;20108;-52
2021/08/24 03:33:21;;;;;;;4.45;1.85;;;;;;;;;;5034695;28;20091;-50
2021/08/24 03:35:47;;;;;;;6.80;2.03;;;;;;;;;;5034650;28;20033;-49
2021/08/24 03:38:13;;;;;;;4.45;1.90;;;;;;;;;;5036765;28;20129;-47
2021/08/24 03:40:39;;;;;;;6.03;2.10;;;;;;;;;;5036652;28;20066;-50
2021/08/24 03:43:05;;;;;;;7.68;2.78;;;;;;;;;;5034902;28;20029;-49
2021/08/24 03:45:32;;;;;;;5.68;2.38;;;;;;;;;;5036393;28;20040;-50
2021/08/24 03:47:58;;;;;;;4.57;2.10;;;;;;;;;;5035144;28;20037;-46
2021/08/24 03:50:24;;;;;;;3.53;1.85;;;;;;;;;;5034152;28;20439;-48
2021/08/24 03:52:51;;;;;;;4.30;1.98;;;;;;;;;;5034399;28;20036;-51
2021/08/24 03:55:18;;;;;;;5.15;1.98;;;;;;;;;;5034563;28;20040;-49
2021/08/24 03:57:44;;;;;;;4.35;2.10;;;;;;;;;;5034095;28;20026;-50
2021/08/24 04:00:11;;;;;;;4.90;2.13;;;;;;;;;;5034631;28;20033;-53
2021/08/24 04:02:37;;;;;;;5.40;2.00;;;;;;;;;;5033790;28;20433;-51
2021/08/24 04:05:03;;;;;;;4.38;1.98;;;;;;;;;;5035725;28;20033;-52
2021/08/24 04:07:33;;;;;;;4.65;2.10;;;;;;;;;;5036166;28;20389;-58
2021/08/24 04:09:59;;;;;;;6.40;2.28;;;;;;;;;;5034831;28;20719;-58
2021/08/24 04:12:26;;;;;;;6.63;2.50;;;;;;;;;;5034524;28;20034;-58
2021/08/24 04:14:51;;;;;;;4.25;2.03;;;;;;;;;;5033856;28;20030;-59
2021/08/24 04:17:18;;;;;;;3.67;2.10;;;;;;;;;;5035449;28;20387;-58
2021/08/24 04:19:44;;;;;;;4.20;1.90;;;;;;;;;;5034242;28;20036;-58
2021/08/24 04:22:11;;;;;;;4.65;2.05;;;;;;;;;;5034244;28;20025;-58
2021/08/24 04:24:37;;;;;;;4.00;1.70;;;;;;;;;;5033990;28;20041;-58
2021/08/24 04:27:04;;;;;;;3.78;1.75;;;;;;;;;;5035542;28;20413;-59
2021/08/24 04:29:30;;;;;;;4.53;2.15;;;;;;;;;;5033849;28;20038;-58
2021/08/24 04:31:56;;;;;;;6.57;2.22;;;;;;;;;;5033803;28;20076;-58
2021/08/24 04:34:22;;;;;;;5.25;2.28;;;;;;;;;;5034409;28;20034;-58
2021/08/24 04:36:48;;;;;;;8.65;2.20;;;;;;;;;;5040944;28;20033;-58
2021/08/24 04:39:14;;;;;;;5.80;1.70;;;;;;;;;;5034646;28;20048;-59
2021/08/24 04:41:40;;;;;;;7.95;2.15;;;;;;;;;;5033209;28;20127;-58
2021/08/24 04:44:06;;;;;;;4.78;2.22;;;;;;;;;;5035459;28;20025;-59
2021/08/24 04:46:32;;;;;;;4.60;2.05;;;;;;;;;;5033895;28;20492;-59
2021/08/24 04:48:58;;;;;;;4.93;2.20;;;;;;;;;;5034125;28;20389;-59
2021/08/24 04:51:24;;;;;;;5.95;2.08;;;;;;;;;;5035218;28;20035;-59
2021/08/24 04:53:50;;;;;;;7.32;2.65;;;;;;;;;;5032951;28;20113;-59
2021/08/24 04:56:16;;;;;;;1.42;1.25;;;;;;;;;;5035416;28;20148;-59
2021/08/24 04:58:42;;;;;;;1.02;0.63;;;;;;;;;;5033889;28;20386;-59
2021/08/24 05:01:08;;;;;;;3.58;1.70;;;;;;;;;;5033670;28;20022;-59
2021/08/24 05:03:34;;;;;;;5.60;1.23;;;;;;;;;;5033550;28;20435;-59
2021/08/24 05:06:00;;;;;;;2.35;1.02;;;;;;;;;;5033413;28;20038;-59
2021/08/24 05:08:27;;;;;;;1.92;0.70;;;;;;;;;;5032937;28;20041;-59
2021/08/24 05:10:53;;;;;;;3.03;1.42;;;;;;;;;;5033457;28;20548;-59
2021/08/24 05:13:19;;;;;;;1.70;0.93;;;;;;;;;;5033802;28;20029;-59
2021/08/24 05:15:45;;;;;;;1.98;0.82;;;;;;;;;;5032825;28;20188;-59
2021/08/24 05:18:11;;;;;;;10.00;1.10;;;;;;;;;;5033342;28;20477;-59
2021/08/24 05:20:37;;;;;;;1.65;0.65;;;;;;;;;;5032604;28;20029;-59
2021/08/24 05:23:03;;;;;;;1.35;1.00;;;;;;;;;;5034545;28;20358;-59
2021/08/24 05:25:29;;;;;;;0.93;0.32;;;;;;;;;;5034637;28;20081;-59
2021/08/24 05:27:55;;;;;;;0.20;0.20;;;;;;;;;;5033183;28;20519;-59
2021/08/24 05:30:24;;;;;;;1.45;0.32;;;;;;;;;;5032882;28;20378;-59
2021/08/24 05:32:51;;;;;;;0.93;0.40;;;;;;;;;;5032859;28;20504;-59
2021/08/24 05:35:17;;;;;;;1.50;0.90;;;;;;;;;;5029692;28;20024;-59
2021/08/24 05:37:44;;;;;;;62.38;48.92;;;;;;;;;;5034574;28;20386;-59
2021/08/24 05:40:10;;;;;;;6.65;2.35;;;;;;;;;;5032850;28;20033;-58
2021/08/24 05:42:36;;;;;;;4.28;2.10;;;;;;;;;;5034287;28;20025;-63
2021/08/24 05:45:03;;;;;;;8.60;2.35;;;;;;;;;;5033201;28;20040;-59
2021/08/24 05:47:30;;;;;;;10.95;2.67;;;;;;;;;;5032396;28;20033;-58
2021/08/24 05:49:56;;;;;;;5.35;2.50;;;;;;;;;;5031997;28;20033;-59
2021/08/24 05:52:22;;;;;;;6.25;2.30;;;;;;;;;;5032604;28;20037;-59
2021/08/24 05:54:50;;;;;;;9.70;2.60;;;;;;;;;;5034083;28;20021;-60
2021/08/24 05:57:19;;;;;;;7.00;2.63;;;;;;;;;;5033961;28;20530;-57
2021/08/24 05:59:45;;;;;;;8.73;2.40;;;;;;;;;;5031812;28;20039;-57
2021/08/24 06:02:11;;;;;;;7.25;2.30;;;;;;;;;;5033526;28;20120;-60
2021/08/24 06:04:37;;;;;;;5.68;2.38;;;;;;;;;;5033555;28;20112;-58
2021/08/24 06:07:04;;;;;;;4.68;2.20;;;;;;;;;;5039696;28;20053;-61
2021/08/24 06:09:30;;;;;;;6.10;2.10;;;;;;;;;;5032530;28;20029;-60
2021/08/24 06:11:57;;;;;;;7.25;2.40;;;;;;;;;;5032006;28;20041;-58
2021/08/24 06:14:23;;;;;;;5.00;2.10;;;;;;;;;;5031636;28;20473;-58
2021/08/24 06:16:55;;;;;;;5.65;2.10;;;;;;;;;;5032707;28;20038;-58
2021/08/24 06:19:21;;;;;;;4.90;2.10;;;;;;;;;;5032450;28;20034;-58
2021/08/24 06:21:48;;;;;;;10.75;2.13;;;;;;;;;;5032245;28;20025;-59
2021/08/24 06:24:14;;;;;;;6.45;2.03;;;;;;;;;;5033460;28;20061;-58
2021/08/24 06:26:42;;;;;;;4.72;2.08;;;;;;;;;;5030222;28;20448;-58
2021/08/24 06:29:08;;;;;;;5.82;2.33;;;;;;;;;;5032623;28;20030;-58
2021/08/24 06:31:39;;;;;;;4.57;2.00;;;;;;;;;;5033625;28;20037;-58
2021/08/24 06:34:07;;;;;;;4.55;2.10;;;;;;;;;;5031632;28;20021;-59
2021/08/24 06:36:33;;;;;;;4.47;2.25;;;;;;;;;;5026302;28;20033;-58
2021/08/24 06:38:59;;;;;;;6.40;2.50;;;;;;;;;;5031481;28;20029;-58
2021/08/24 06:41:26;;;;;;;4.65;1.80;;;;;;;;;;5032573;28;20072;-58
2021/08/24 06:43:52;;;;;;;5.25;2.03;;;;;;;;;;5032306;28;20100;-58
2021/08/24 06:46:18;;;;;;;6.57;2.30;;;;;;;;;;5030244;28;20036;-57
2021/08/24 06:48:44;;;;;;;8.73;2.45;;;;;;;;;;5036152;28;20025;-59
2021/08/24 06:51:10;;;;;;;7.72;2.53;;;;;;;;;;5031687;28;20060;-59
2021/08/24 06:53:41;;;;;;;6.78;2.10;;;;;;;;;;5033791;28;20136;-59
2021/08/24 06:56:09;;;;;;;13.18;2.67;;;;;;;;;;5016105;28;20044;-59
2021/08/24 06:58:35;;;;;;;5.18;2.28;;;;;;;;;;5031999;28;20519;-59
2021/08/24 07:01:01;;;;;;;10.40;2.58;;;;;;;;;;5034399;28;20106;-58
2021/08/24 07:03:27;;;;;;;6.55;2.00;;;;;;;;;;5046617;28;20116;-61
2021/08/24 07:05:53;;;;;;;7.03;2.08;;;;;;;;;;5035347;28;20033;-59
2021/08/24 07:08:19;;;;;;;4.88;2.08;;;;;;;;;;5034441;28;20219;-59
2021/08/24 07:10:47;;;;;;;7.70;2.22;;;;;;;;;;5035519;28;20041;-58
2021/08/24 07:13:13;;;;;;;8.05;2.30;;;;;;;;;;5039998;28;20025;-60
2021/08/24 07:15:39;;;;;;;6.47;1.70;;;;;;;;;;5037108;28;20044;-58
2021/08/24 07:18:06;;;;;;;5.82;2.83;;;;;;;;;;5024402;28;20744;-58
2021/08/24 07:20:32;;;;;;;7.63;2.00;;;;;;;;;;5035211;28;20033;-58
2021/08/24 07:22:59;;;;;;;4.97;2.17;;;;;;;;;;5038807;28;20079;-59
2021/08/24 07:25:26;;;;;;;3.97;1.88;;;;;;;;;;5036544;28;20401;-58
2021/08/24 07:27:53;;;;;;;5.10;2.15;;;;;;;;;;5036709;28;20131;-58
2021/08/24 07:30:20;;;;;;;5.00;2.13;;;;;;;;;;5031756;28;20021;-58
2021/08/24 07:32:46;;;;;;;4.88;1.90;;;;;;;;;;5032843;28;20109;-59
2021/08/24 07:35:13;;;;;;;4.30;2.33;;;;;;;;;;5034278;28;20025;-58
2021/08/24 07:37:39;;;;;;;6.13;2.47;;;;;;;;;;5033274;28;20038;-58
2021/08/24 07:40:06;;;;;;;5.72;1.83;;;;;;;;;;5027556;28;20273;-58
2021/08/24 07:42:32;;;;;;;4.47;1.90;;;;;;;;;;5028629;28;20037;-59
2021/08/24 07:44:58;;;;;;;5.25;2.00;;;;;;;;;;5032735;28;20389;-59
2021/08/24 07:47:24;;;;;;;5.13;1.67;;;;;;;;;;5035545;28;20057;-59
2021/08/24 07:49:51;;;;;;;8.13;1.90;;;;;;;;;;5034975;28;20118;-59
2021/08/24 07:52:17;;;;;;;6.75;2.28;;;;;;;;;;5032774;28;20548;-60
2021/08/24 07:54:44;;;;;;;4.85;1.90;;;;;;;;;;5029936;28;20102;-59
2021/08/24 07:57:10;;;;;;;4.90;1.50;;;;;;;;;;5036526;28;20108;-59
2021/08/24 07:59:36;;;;;;;5.60;2.00;;;;;;;;;;5034044;28;20293;-59
2021/08/24 08:02:02;;;;;;;6.45;1.98;;;;;;;;;;5041273;28;20040;-59
2021/08/24 08:04:28;;;;;;;5.43;1.98;;;;;;;;;;5038335;28;20029;-59
2021/08/24 08:06:54;;;;;;;4.80;1.83;;;;;;;;;;5034078;28;20072;-59
2021/08/24 08:09:20;;;;;;;4.43;1.75;;;;;;;;;;5035866;28;20021;-60
2021/08/24 08:11:47;;;;;;;5.43;1.80;;;;;;;;;;5036781;28;20037;-60
2021/08/24 08:14:14;;;;;;;4.25;1.85;;;;;;;;;;5019591;28;20040;-60
2021/08/24 08:16:40;;;;;;;4.30;1.67;;;;;;;;;;5033294;28;20465;-60
2021/08/24 08:19:06;;;;;;;5.88;1.90;;;;;;;;;;5036033;28;20100;-60
2021/08/24 08:21:33;;;;;;;3.22;1.70;;;;;;;;;;5038694;28;20048;-60
2021/08/24 08:24:01;;;;;;;4.50;1.90;;;;;;;;;;5034941;28;20091;-60
2021/08/24 08:26:27;;;;;;;;;;;;;;;;;;5031894;28;20045;-60
2021/08/24 08:28:55;;;;;;;4.60;1.90;;;;;;;;;;5026576;28;19909;-60
2021/08/24 08:31:21;;;;;;;5.47;2.13;;;;;;;;;;5036585;28;20473;-60
2021/08/24 08:33:47;;;;;;;8.25;1.75;;;;;;;;;;5045476;28;20026;-60
2021/08/24 08:36:13;;;;;;;6.25;2.08;;;;;;;;;;5034366;28;20393;-60
2021/08/24 08:38:39;;;;;;;3.70;1.67;;;;;;;;;;5032990;28;20032;-60
2021/08/24 08:41:27;;;;;;;4.55;2.05;;;;;;;;;;5032607;28;20021;-60
2021/08/24 08:44:01;;;;;;;5.97;1.90;;;;;;;;;;5029378;28;20039;-60
2021/08/24 08:46:30;;;;;;;4.38;1.90;;;;;;;;;;5034847;28;20033;-60
2021/08/24 08:48:56;;;;;;;5.95;1.80;;;;;;;;;;5035249;28;20022;-60
2021/08/24 08:51:22;;;;;;;3.55;1.80;;;;;;;;;;5036580;28;20401;-60
2021/08/24 08:53:54;;;;;;;4.38;1.90;;;;;;;;;;5034852;28;20384;-60
2021/08/24 08:56:39;;;;;;;4.80;1.65;;;;;;;;;;5031456;28;20033;-60
2021/08/24 08:59:16;;;;;;;3.17;1.65;;;;;;;;;;5034914;28;20033;-60
2021/08/24 09:01:42;;;;;;;;;;;;;;;;;;5039441;28;20039;-60
2021/08/24 09:04:23;;;;;;;4.55;1.63;;;;;;;;;;5042413;28;19913;-60
2021/08/24 09:06:51;;;;;;;3.00;1.50;;;;;;;;;;5035051;28;20025;-60
2021/08/24 09:09:17;;;;;;;;;;;;;;;;;;5034603;28;20037;-60
2021/08/24 09:11:45;;;;;;;4.32;1.67;;;;;;;;;;5035744;28;19920;-59
2021/08/24 09:14:16;;;;;;;3.22;1.65;;;;;;;;;;5044128;28;20076;-59
2021/08/24 09:16:47;;;;;;;2.83;1.40;;;;;;;;;;5032292;28;20030;-60
2021/08/24 09:19:15;;;;;;;3.95;1.70;;;;;;;;;;5032941;28;20056;-59
2021/08/24 09:21:42;;;;;;;4.38;1.60;;;;;;;;;;5037690;28;20096;-59
2021/08/24 09:24:08;;;;;;;;;;;;;;;;;;5027223;28;20018;-59
2021/08/24 09:26:34;;;;;;;3.67;1.52;;;;;;;;;;5032212;28;20350;-64
2021/08/24 09:29:00;;;;;;;3.83;1.70;;;;;;;;;;5032966;28;20038;-64
2021/08/24 09:31:26;;;;;;;3.63;1.88;;;;;;;;;;5035601;28;20048;-64
2021/08/24 09:33:53;;;;;;;4.80;1.75;;;;;;;;;;5047312;28;20025;-64
2021/08/24 09:36:19;;;;;;;3.13;1.50;;;;;;;;;;5034215;28;20071;-64
2021/08/24 09:38:47;;;;;;;3.35;1.50;;;;;;;;;;5032158;28;20021;-64
2021/08/24 09:41:19;;;;;;;2.53;1.55;;;;;;;;;;5033772;28;20354;-64
2021/08/24 09:43:45;;;;;;;5.10;1.98;;;;;;;;;;5039734;28;20032;-64
2021/08/24 09:46:23;;;;;;;4.10;1.60;;;;;;;;;;5040025;28;20022;-64
2021/08/24 09:49:06;;;;;;;4.10;1.52;;;;;;;;;;5033955;28;20017;-64
2021/08/24 09:51:38;;;;;;;3.65;2.00;;;;;;;;;;5034101;28;20033;-64
2021/08/24 09:54:23;;;;;;;3.78;1.65;;;;;;;;;;5036119;28;20053;-64
2021/08/24 09:56:53;;;;;;;3.92;1.90;;;;;;;;;;5029918;28;20104;-64
2021/08/24 09:59:26;;;;;;;3.85;1.60;;;;;;;;;;5029884;28;20095;-64
2021/08/24 10:01:53;;;;;;;2.60;1.50;;;;;;;;;;5034042;28;20032;-64
2021/08/24 10:04:19;;;;;;;3.60;1.70;;;;;;;;;;5037063;28;20030;-64
2021/08/24 10:06:57;;;;;;;3.70;1.80;;;;;;;;;;5034061;28;20029;-64
2021/08/24 10:09:25;;;;;;;4.10;1.50;;;;;;;;;;5033799;28;20056;-64
2021/08/24 10:11:51;;;;;;;3.40;1.30;;;;;;;;;;5031612;28;20040;-64
2021/08/24 10:14:26;;;;;;;2.42;1.50;;;;;;;;;;5037966;28;20377;-64
2021/08/24 10:16:54;;;;;;;3.47;1.60;;;;;;;;;;5035051;28;20129;-64
2021/08/24 10:19:27;;;;;;;3.00;1.58;;;;;;;;;;5033262;28;20025;-64
2021/08/24 10:22:01;;;;;;;3.88;1.70;;;;;;;;;;5033856;28;20029;-64
2021/08/24 10:24:32;;;;;;;3.35;1.48;;;;;;;;;;5042465;28;20116;-64
2021/08/24 10:27:00;;;;;;;3.88;1.48;;;;;;;;;;5032494;28;20041;-64
2021/08/24 10:29:28;;;;;;;2.67;1.40;;;;;;;;;;5032500;28;20041;-64
2021/08/24 10:32:02;;;;;;;4.47;1.52;;;;;;;;;;5032822;28;20036;-64
2021/08/24 10:34:32;;;;;;;3.28;1.40;;;;;;;;;;5036855;28;20044;-64
2021/08/24 10:37:30;;;;;;;5.57;2.08;;;;;;;;;;5032423;28;20021;-64
2021/08/24 10:40:16;;;;;;;4.28;1.60;;;;;;;;;;5037857;28;20151;-64
2021/08/24 10:42:59;;;;;;;4.57;1.40;;;;;;;;;;5037216;28;20104;-64
2021/08/24 10:45:27;;;;;;;3.92;1.60;;;;;;;;;;5048677;28;20028;-64
2021/08/24 10:47:54;;;;;;;5.28;1.58;;;;;;;;;;5035427;28;20032;-64
2021/08/24 10:50:22;;;;;;;2.83;1.50;;;;;;;;;;5037011;28;20446;-64
2021/08/24 10:52:48;;;;;;;3.50;1.73;;;;;;;;;;5036037;28;20484;-64
2021/08/24 10:55:22;;;;;;;5.18;1.73;;;;;;;;;;5039677;28;20079;-64
2021/08/24 10:58:07;;;;;;;3.80;1.73;;;;;;;;;;5036738;28;20021;-64
2021/08/24 11:00:42;;;;;;;3.47;1.60;;;;;;;;;;5038775;28;20030;-64
2021/08/24 11:03:11;;;;;;;6.25;2.03;;;;;;;;;;5019739;28;20025;-64
2021/08/24 11:05:43;;;;;;;4.47;1.90;;;;;;;;;;5037662;28;20405;-64
2021/08/24 11:08:30;;;;;;;3.42;1.40;;;;;;;;;;5035586;28;20030;-64
2021/08/24 11:10:56;;;;;;;4.17;1.73;;;;;;;;;;5025993;28;20053;-64
2021/08/24 11:13:36;;;;;;;5.45;1.70;;;;;;;;;;5037920;28;20032;-65
2021/08/24 11:16:21;;;;;;;2.67;1.30;;;;;;;;;;5043832;28;20492;-64
2021/08/24 11:19:08;;;;;;;5.28;1.63;;;;;;;;;;5036299;28;20037;-64
2021/08/24 11:21:37;;;;;;;3.95;1.58;;;;;;;;;;5036972;28;20033;-64
2021/08/24 11:24:03;;;;;;;4.05;1.73;;;;;;;;;;5038216;28;20071;-64
2021/08/24 11:26:41;;;;;;;3.88;1.63;;;;;;;;;;5034850;28;20057;-64
2021/08/24 11:29:07;;;;;;;3.08;1.60;;;;;;;;;;5035426;28;20030;-64
2021/08/24 11:31:33;;;;;;;2.80;1.55;;;;;;;;;;5037566;28;20044;-64
2021/08/24 11:34:13;;;;;;;4.53;1.65;;;;;;;;;;5040030;28;20017;-64
2021/08/24 11:36:44;;;;;;;3.00;1.30;;;;;;;;;;5036689;28;20036;-64
2021/08/24 11:39:10;;;;;;;3.13;1.50;;;;;;;;;;5021305;28;20112;-64
2021/08/24 11:41:37;;;;;;;2.97;1.50;;;;;;;;;;5034357;28;20061;-64
2021/08/24 11:44:07;;;;;;;3.50;1.60;;;;;;;;;;5033660;28;20022;-64
2021/08/24 11:46:54;;;;;;;2.40;1.48;;;;;;;;;;5035898;28;20030;-64
2021/08/24 11:49:29;;;;;;;2.92;1.67;;;;;;;;;;5035669;28;20025;-64
2021/08/24 11:52:08;;;;;;;2.85;1.30;;;;;;;;;;5036363;28;20056;-64
2021/08/24 11:54:34;;;;;;;2.80;1.48;;;;;;;;;;5037563;28;20100;-64
2021/08/24 11:57:11;;;;;;;2.33;1.30;;;;;;;;;;5044356;28;20060;-64
2021/08/24 11:59:45;;;;;;;2.97;1.38;;;;;;;;;;5041328;28;20018;-64
2021/08/24 12:02:29;;;;;;;2.72;1.42;;;;;;;;;;5034564;28;20037;-64
2021/08/24 12:04:55;;;;;;;3.33;1.58;;;;;;;;;;5039103;28;20037;-64
2021/08/24 12:07:25;;;;;;;3.22;1.45;;;;;;;;;;5035977;28;20470;-64
2021/08/24 12:09:54;;;;;;;3.55;1.58;;;;;;;;;;5034152;28;20032;-64
2021/08/24 12:12:26;;;;;;;4.40;1.80;;;;;;;;;;5036352;28;20025;-64
2021/08/24 12:14:55;;;;;;;3.53;1.40;;;;;;;;;;5045594;28;20056;-63
2021/08/24 12:17:24;;;;;;;3.03;1.30;;;;;;;;;;5031973;28;20044;-64
2021/08/24 12:20:05;;;;;;;3.60;1.33;;;;;;;;;;5033647;28;20021;-63
2021/08/24 12:22:36;;;;;;;2.10;1.10;;;;;;;;;;5032056;28;20103;-64
2021/08/24 12:25:05;;;;;;;2.67;1.33;;;;;;;;;;5034481;28;20390;-64
2021/08/24 12:27:31;;;;;;;2.95;1.30;;;;;;;;;;5033560;28;20036;-64
2021/08/24 12:30:14;;;;;;;3.25;1.40;;;;;;;;;;5033364;28;20901;-65
2021/08/24 12:32:41;;;;;;;2.28;1.35;;;;;;;;;;5031067;28;20033;-65
2021/08/24 12:35:14;;;;;;;3.50;1.50;;;;;;;;;;5034844;28;20021;-64
2021/08/24 12:37:40;;;;;;;2.67;1.40;;;;;;;;;;5035657;28;20033;-65
2021/08/24 12:40:12;;;;;;;3.53;1.50;;;;;;;;;;5035014;28;20100;-65
2021/08/24 12:42:39;;;;;;;3.15;1.63;;;;;;;;;;5040575;28;20112;-65
2021/08/24 12:45:06;;;;;;;3.72;1.50;;;;;;;;;;5028835;28;20037;-64
2021/08/24 12:47:46;;;;;;;4.93;1.77;;;;;;;;;;5033441;28;20029;-64
2021/08/24 12:50:12;;;;;;;2.95;1.50;;;;;;;;;;5034735;28;20033;-64
2021/08/24 12:52:39;;;;;;;3.03;1.58;;;;;;;;;;5033367;28;20044;-65
2021/08/24 12:55:05;;;;;;;;;;;;;;;;;;5037097;28;20029;-65
2021/08/24 12:57:42;;;;;;;3.90;1.55;;;;;;;;;;5032352;28;19915;-65
2021/08/24 13:00:20;;;;;;;3.40;1.42;;;;;;;;;;5017215;28;20148;-65
2021/08/24 13:02:54;;;;;;;4.63;2.33;;;;;;;;;;5028847;28;20100;-65
2021/08/24 13:05:23;;;;;;;3.17;1.73;;;;;;;;;;5032849;28;20029;-65
2021/08/24 13:07:49;;;;;;;3.05;1.60;;;;;;;;;;5035964;28;20040;-65
2021/08/24 13:10:24;;;;;;;4.68;1.92;;;;;;;;;;5033274;28;20625;-65
2021/08/24 13:12:50;;;;;;;3.83;1.80;;;;;;;;;;5032616;28;20032;-65
2021/08/24 13:15:22;;;;;;;3.33;1.85;;;;;;;;;;5033990;28;20028;-65
2021/08/24 13:17:49;;;;;;;5.05;1.50;;;;;;;;;;5032792;28;20087;-65
2021/08/24 13:20:23;;;;;;;4.28;1.77;;;;;;;;;;5034827;28;20037;-65
2021/08/24 13:22:52;;;;;;;5.22;1.90;;;;;;;;;;5034832;28;20493;-65
2021/08/24 13:25:20;;;;;;;4.65;2.10;;;;;;;;;;5036313;28;20041;-64
2021/08/24 13:27:48;;;;;;;6.32;1.80;;;;;;;;;;5043781;28;20026;-64
2021/08/24 13:30:13;;;;;;;;;;;;;;;;;;5035195;28;20048;-63
2021/08/24 13:32:50;;;;;;;3.97;1.90;;;;;;;;;;5032331;28;19905;-64
2021/08/24 13:35:19;;;;;;;5.22;1.85;;;;;;;;;;5036554;28;20115;-64
2021/08/24 13:37:46;;;;;;;4.25;1.80;;;;;;;;;;5036396;28;20057;-65
2021/08/24 13:40:13;;;;;;;;;;;;;;;;;;5033624;28;20060;-64
2021/08/24 13:42:49;;;;;;;6.22;1.83;;;;;;;;;;5034812;28;19916;-64
2021/08/24 13:45:22;;;;;;;6.15;2.15;;;;;;;;;;5019920;28;20029;-64
2021/08/24 13:47:49;;;;;;;4.38;1.60;;;;;;;;;;5031867;28;20021;-64
2021/08/24 13:50:26;;;;;;;3.83;1.80;;;;;;;;;;5033966;28;20034;-64
2021/08/24 13:53:04;;;;;;;4.10;2.00;;;;;;;;;;5033100;28;20032;-65
2021/08/24 13:55:30;;;;;;;;;;;;;;;;;;5038809;28;20036;-64
2021/08/24 13:57:56;;;;;;;3.70;2.00;;;;;;;;;;5042505;28;19909;-65
2021/08/24 14:00:23;;;;;;;5.22;2.00;;;;;;;;;;5033908;28;20037;-65
2021/08/24 14:02:50;;;;;;;4.70;1.83;;;;;;;;;;5032150;28;20025;-64
2021/08/24 14:05:16;;;;;;;;;;;;;;;;;;5036283;28;20088;-63
2021/08/24 14:07:43;;;;;;;4.00;1.90;;;;;;;;;;5036570;28;20327;-65
2021/08/24 14:10:11;;;;;;;3.85;1.88;;;;;;;;;;5033647;28;20537;-63
2021/08/24 14:12:39;;;;;;;5.88;1.98;;;;;;;;;;5033732;28;20068;-65
2021/08/24 14:15:25;;;;;;;3.78;2.10;;;;;;;;;;5033093;28;20087;-66
2021/08/24 14:17:53;;;;;;;3.70;2.08;;;;;;;;;;5030430;28;20029;-65
2021/08/24 14:20:25;;;;;;;5.65;2.33;;;;;;;;;;5029489;28;20510;-65
2021/08/24 14:22:53;;;;;;;4.05;1.90;;;;;;;;;;5033568;28;20029;-65
2021/08/24 14:25:24;;;;;;;4.75;2.10;;;;;;;;;;5036238;28;20046;-65
2021/08/24 14:27:50;;;;;;;5.50;2.05;;;;;;;;;;5043803;28;20442;-65
2021/08/24 14:30:17;;;;;;;4.07;2.13;;;;;;;;;;5032143;28;20095;-66
2021/08/24 14:32:44;;;;;;;4.10;2.00;;;;;;;;;;5031479;28;20742;-64
2021/08/24 14:35:30;;;;;;;5.20;1.90;;;;;;;;;;5034120;28;20308;-64
2021/08/24 14:37:57;;;;;;;3.83;2.00;;;;;;;;;;5034351;28;20583;-63
2021/08/24 14:40:27;;;;;;;4.78;1.92;;;;;;;;;;5033285;28;20087;-63
2021/08/24 14:42:58;;;;;;;3.25;1.75;;;;;;;;;;5033882;28;20036;-68
2021/08/24 14:45:29;;;;;;;4.50;2.08;;;;;;;;;;5042384;28;20032;-64
2021/08/24 14:48:03;;;;;;;3.88;1.92;;;;;;;;;;5031773;28;20104;-66
2021/08/24 14:50:34;;;;;;;5.22;2.55;;;;;;;;;;5031958;28;20370;-65
2021/08/24 14:53:01;;;;;;;6.78;2.00;;;;;;;;;;5033184;28;20033;-66
2021/08/24 14:55:31;;;;;;;5.65;2.22;;;;;;;;;;5037107;28;20116;-64
2021/08/24 14:57:57;;;;;;;4.60;2.30;;;;;;;;;;5040602;28;20065;-65